Time;durP1;ratioP1;P1;durP2;ratioP2;P2;SDS_P1;SDS_P2;PMS_P1;PMS_P2;Temp;Humidity;BMP_temperature;BMP_pressure;BME280_temperature;BME280_humidity;BME280_pressure;Samples;Min_cycle;Max_cycle;Signal;HPM_P1;HPM_P2
2021/04/18 00:00:16;;;;;;;10.57;7.50;;;9.20;99.90;;;;;;5136437;27;20224;-69
2021/04/18 00:02:42;;;;;;;12.57;8.75;;;9.20;99.90;;;;;;5136611;27;20222;-66
2021/04/18 00:05:09;;;;;;;11.57;8.27;;;9.20;99.90;;;;;;5136427;27;20256;-67
2021/04/18 00:07:34;;;;;;;11.95;9.15;;;9.10;99.90;;;;;;5136449;27;20740;-66
2021/04/18 00:10:00;;;;;;;12.43;9.93;;;9.10;99.90;;;;;;5136261;27;20163;-66
2021/04/18 00:12:26;;;;;;;12.50;8.10;;;9.00;99.90;;;;;;5136457;27;20209;-66
2021/04/18 00:14:53;;;;;;;13.95;9.40;;;8.90;99.90;;;;;;5136169;27;20175;-68
2021/04/18 00:17:18;;;;;;;14.10;8.55;;;8.90;99.90;;;;;;5136363;27;20190;-68
2021/04/18 00:19:44;;;;;;;16.10;10.63;;;9.00;99.90;;;;;;5117545;27;20198;-66
2021/04/18 00:22:10;;;;;;;14.90;9.83;;;8.90;99.90;;;;;;5136303;27;20187;-68
2021/04/18 00:24:36;;;;;;;15.63;9.00;;;9.00;99.90;;;;;;5135909;27;20187;-66
2021/04/18 00:27:02;;;;;;;10.88;8.45;;;9.00;99.90;;;;;;5136114;27;20229;-66
2021/04/18 00:29:28;;;;;;;10.85;8.63;;;8.90;99.90;;;;;;5117369;27;20240;-68
2021/04/18 00:31:54;;;;;;;17.00;9.73;;;8.90;99.90;;;;;;5135954;27;20183;-68
2021/04/18 00:34:19;;;;;;;15.10;9.83;;;8.90;99.90;;;;;;5135682;27;20193;-68
2021/04/18 00:36:45;;;;;;;13.27;9.37;;;8.90;99.90;;;;;;5117244;27;20217;-68
2021/04/18 00:39:11;;;;;;;17.07;10.53;;;8.90;99.90;;;;;;5135633;27;20187;-66
2021/04/18 00:41:36;;;;;;;14.77;10.00;;;8.90;99.90;;;;;;5116503;27;20185;-66
2021/04/18 00:44:02;;;;;;;16.13;9.23;;;8.90;99.90;;;;;;5135549;27;20186;-68
2021/04/18 00:46:28;;;;;;;13.40;8.90;;;8.80;99.90;;;;;;5135516;27;20223;-68
2021/04/18 00:48:56;;;;;;;14.17;9.70;;;8.80;99.90;;;;;;5135376;27;20324;-66
2021/04/18 00:51:21;;;;;;;17.52;10.95;;;8.80;99.90;;;;;;5116844;27;20223;-69
2021/04/18 00:53:47;;;;;;;18.23;11.80;;;8.70;99.90;;;;;;5135331;27;20199;-68
2021/04/18 00:56:13;;;;;;;15.23;9.30;;;8.70;99.90;;;;;;5116903;27;20175;-69
2021/04/18 00:58:39;;;;;;;17.23;11.40;;;8.70;99.90;;;;;;5135271;27;20266;-68
2021/04/18 01:01:07;;;;;;;13.70;9.60;;;8.70;99.90;;;;;;5135251;27;20391;-69
2021/04/18 01:03:33;;;;;;;21.52;13.35;;;8.80;99.90;;;;;;5135129;27;20613;-68
2021/04/18 01:05:58;;;;;;;17.90;11.55;;;8.80;99.90;;;;;;5135189;27;20207;-68
2021/04/18 01:08:24;;;;;;;17.00;10.73;;;8.80;99.90;;;;;;5135169;27;20206;-66
2021/04/18 01:10:50;;;;;;;26.67;15.90;;;8.80;99.90;;;;;;5116679;27;20173;-68
2021/04/18 01:13:16;;;;;;;18.70;12.40;;;8.70;99.90;;;;;;5135522;27;20203;-66
2021/04/18 01:15:41;;;;;;;17.20;9.63;;;8.70;99.90;;;;;;5116635;27;20971;-69
2021/04/18 01:18:07;;;;;;;22.10;9.67;;;8.70;99.90;;;;;;5116797;27;20214;-69
2021/04/18 01:20:32;;;;;;;16.60;9.23;;;8.70;99.90;;;;;;5135034;27;20644;-67
2021/04/18 01:22:58;;;;;;;13.37;8.47;;;8.70;99.90;;;;;;5135253;27;20194;-66
2021/04/18 01:25:24;;;;;;;20.30;11.40;;;8.60;99.90;;;;;;5134910;27;20184;-67
2021/04/18 01:27:50;;;;;;;12.90;9.20;;;8.60;99.90;;;;;;5116383;27;20223;-66
2021/04/18 01:30:17;;;;;;;13.23;9.32;;;8.60;99.90;;;;;;5134887;27;20171;-69
2021/04/18 01:32:51;;;;;;;12.45;9.40;;;8.60;99.90;;;;;;5116533;27;20225;-66
2021/04/18 01:35:18;;;;;;;12.20;8.52;;;8.60;99.90;;;;;;5134894;27;20159;-68
2021/04/18 01:37:44;;;;;;;12.90;10.45;;;8.60;99.90;;;;;;5116460;28;20199;-66
2021/04/18 01:40:15;;;;;;;12.65;8.93;;;8.60;99.90;;;;;;5134674;27;20254;-67
2021/04/18 01:42:42;;;;;;;11.90;9.45;;;8.50;99.90;;;;;;5116355;28;20695;-70
2021/04/18 01:45:09;;;;;;;15.45;11.57;;;8.40;99.90;;;;;;5116356;28;20632;-66
2021/04/18 01:47:35;;;;;;;10.68;8.55;;;8.40;99.90;;;;;;5116282;28;20687;-66
2021/04/18 01:50:03;;;;;;;12.83;8.70;;;8.50;99.90;;;;;;5134618;28;20174;-67
2021/04/18 01:52:29;;;;;;;13.80;11.00;;;8.50;99.90;;;;;;5137582;27;20458;-68
2021/04/18 01:54:54;;;;;;;20.20;11.50;;;8.50;99.90;;;;;;5138909;27;20170;-67
2021/04/18 01:57:20;;;;;;;23.13;14.20;;;8.50;99.90;;;;;;5139170;27;20175;-69
2021/04/18 01:59:45;;;;;;;21.60;12.93;;;8.50;99.90;;;;;;5138787;27;20183;-67
2021/04/18 02:02:12;;;;;;;20.67;10.60;;;8.60;99.90;;;;;;5138936;27;20621;-67
2021/04/18 02:04:39;;;;;;;17.70;10.07;;;8.50;99.90;;;;;;5120173;27;20279;-66
2021/04/18 02:07:05;;;;;;;13.73;8.55;;;8.60;99.90;;;;;;5138812;27;20257;-67
2021/04/18 02:09:33;;;;;;;18.63;10.93;;;8.60;99.90;;;;;;5138660;27;20210;-66
2021/04/18 02:12:00;;;;;;;16.55;10.45;;;8.50;99.90;;;;;;5138785;27;20263;-68
2021/04/18 02:14:26;;;;;;;12.13;7.88;;;8.50;99.90;;;;;;5138562;27;20194;-68
2021/04/18 02:16:53;;;;;;;12.85;8.68;;;8.50;99.90;;;;;;5138349;27;20769;-66
2021/04/18 02:19:20;;;;;;;13.73;9.73;;;8.50;99.90;;;;;;5138356;27;20216;-66
2021/04/18 02:21:45;;;;;;;18.33;10.60;;;8.50;99.90;;;;;;5138504;27;20180;-68
2021/04/18 02:24:11;;;;;;;11.53;8.47;;;8.40;99.90;;;;;;5138304;27;20191;-68
2021/04/18 02:26:37;;;;;;;17.50;10.63;;;8.50;99.90;;;;;;5119801;27;20471;-67
2021/04/18 02:29:03;;;;;;;18.20;11.85;;;8.50;99.90;;;;;;5138238;27;20415;-66
2021/04/18 02:31:29;;;;;;;13.50;10.10;;;8.40;99.90;;;;;;5138401;27;20187;-68
2021/04/18 02:33:55;;;;;;;10.27;7.80;;;8.40;99.90;;;;;;5138131;27;20283;-66
2021/04/18 02:36:20;;;;;;;12.63;8.00;;;8.40;99.90;;;;;;5138270;27;20274;-66
2021/04/18 02:38:46;;;;;;;13.50;9.00;;;8.40;99.90;;;;;;5138012;27;20679;-66
2021/04/18 02:41:12;;;;;;;13.10;8.83;;;8.40;99.90;;;;;;5138007;27;20205;-68
2021/04/18 02:43:37;;;;;;;20.20;12.82;;;8.40;99.90;;;;;;5137945;27;20644;-68
2021/04/18 02:46:03;;;;;;;12.90;8.60;;;8.40;99.90;;;;;;5119369;27;20216;-69
2021/04/18 02:48:29;;;;;;;13.33;9.87;;;8.40;99.90;;;;;;5137884;27;20256;-69
2021/04/18 02:50:54;;;;;;;13.00;9.20;;;8.30;99.90;;;;;;5137767;27;20635;-66
2021/04/18 02:53:20;;;;;;;13.03;9.40;;;8.30;99.90;;;;;;5138256;27;20689;-67
2021/04/18 02:55:45;;;;;;;11.97;9.60;;;8.30;99.90;;;;;;5137717;27;20195;-68
2021/04/18 02:58:11;;;;;;;12.87;8.03;;;8.30;99.90;;;;;;5138175;27;20533;-67
2021/04/18 03:00:37;;;;;;;14.40;10.50;;;8.20;99.90;;;;;;5137657;27;20246;-70
2021/04/18 03:03:03;;;;;;;12.30;9.97;;;8.30;99.90;;;;;;5137402;27;20263;-69
2021/04/18 03:05:29;;;;;;;12.40;10.10;;;8.30;99.90;;;;;;5137584;27;20171;-68
2021/04/18 03:07:54;;;;;;;13.73;8.20;;;8.40;99.90;;;;;;5137723;27;20698;-66
2021/04/18 03:10:20;;;;;;;15.83;9.20;;;8.30;99.90;;;;;;5119042;27;20184;-66
2021/04/18 03:12:46;;;;;;;13.40;10.63;;;8.40;99.90;;;;;;5137249;27;20230;-68
2021/04/18 03:15:12;;;;;;;10.97;8.67;;;8.40;99.90;;;;;;5137456;27;20171;-66
2021/04/18 03:17:38;;;;;;;13.50;10.35;;;8.40;99.90;;;;;;5137566;27;20254;-66
2021/04/18 03:20:05;;;;;;;15.17;9.07;;;8.40;99.90;;;;;;5118912;27;20270;-68
2021/04/18 03:22:31;;;;;;;20.33;13.15;;;8.40;99.90;;;;;;5137514;27;20228;-66
2021/04/18 03:24:56;;;;;;;16.83;11.27;;;8.40;99.90;;;;;;5137177;27;20170;-67
2021/04/18 03:27:22;;;;;;;16.33;11.27;;;8.40;99.90;;;;;;5118518;27;20747;-69
2021/04/18 03:29:48;;;;;;;13.03;9.80;;;8.40;99.90;;;;;;5137047;27;20170;-70
2021/04/18 03:32:14;;;;;;;10.48;8.80;;;8.40;99.90;;;;;;5137371;27;20609;-70
2021/04/18 03:34:39;;;;;;;11.20;8.47;;;8.40;99.90;;;;;;5136866;27;20191;-68
2021/04/18 03:37:05;;;;;;;12.00;7.00;;;8.40;99.90;;;;;;5137325;27;20193;-68
2021/04/18 03:39:31;;;;;;;15.83;10.27;;;8.40;99.90;;;;;;5136899;27;20194;-66
2021/04/18 03:41:56;;;;;;;13.90;9.40;;;8.30;99.90;;;;;;5118241;27;20999;-66
2021/04/18 03:44:22;;;;;;;14.60;9.53;;;8.30;99.90;;;;;;5136744;27;20656;-68
2021/04/18 03:46:47;;;;;;;14.87;8.60;;;8.30;99.90;;;;;;5136819;27;20257;-66
2021/04/18 03:49:13;;;;;;;14.13;9.23;;;8.30;99.90;;;;;;5136624;27;20187;-69
2021/04/18 03:51:38;;;;;;;13.27;8.23;;;8.20;99.90;;;;;;5136642;27;20322;-67
2021/04/18 03:54:04;;;;;;;15.47;8.60;;;8.20;99.90;;;;;;5136581;27;20230;-66
2021/04/18 03:56:30;;;;;;;15.37;8.17;;;8.20;99.90;;;;;;5118229;27;20232;-66
2021/04/18 03:58:56;;;;;;;10.00;7.90;;;8.30;99.90;;;;;;5136458;27;20644;-67
2021/04/18 04:01:21;;;;;;;18.00;9.37;;;8.20;99.90;;;;;;5136482;27;20437;-69
2021/04/18 04:03:47;;;;;;;14.00;9.27;;;8.30;99.90;;;;;;5136323;27;20195;-69
2021/04/18 04:06:12;;;;;;;10.37;7.20;;;8.20;99.90;;;;;;5136290;27;20203;-68
2021/04/18 04:08:38;;;;;;;15.20;8.20;;;8.20;99.90;;;;;;5136249;27;20193;-66
2021/04/18 04:11:04;;;;;;;14.87;6.10;;;8.10;99.90;;;;;;5117711;27;20220;-67
2021/04/18 04:13:29;;;;;;;14.97;6.87;;;8.10;99.90;;;;;;5136149;27;20599;-66
2021/04/18 04:15:55;;;;;;;13.20;9.30;;;8.10;99.90;;;;;;5135065;27;20539;-68
2021/04/18 04:18:20;;;;;;;16.43;9.03;;;8.00;99.90;;;;;;5117931;27;20223;-66
2021/04/18 04:20:46;;;;;;;13.20;8.30;;;8.00;99.90;;;;;;5136098;27;20183;-68
2021/04/18 04:23:11;;;;;;;10.10;7.97;;;8.00;99.90;;;;;;5135853;27;20264;-66
2021/04/18 04:25:37;;;;;;;11.97;8.47;;;8.00;99.90;;;;;;5136010;27;20514;-69
2021/04/18 04:28:03;;;;;;;8.23;7.00;;;8.10;99.90;;;;;;5117667;27;20230;-66
2021/04/18 04:30:29;;;;;;;15.87;8.20;;;8.00;99.90;;;;;;5135958;27;20196;-67
2021/04/18 04:32:54;;;;;;;12.47;8.23;;;8.00;99.90;;;;;;5136067;27;20452;-66
2021/04/18 04:35:20;;;;;;;10.20;8.00;;;8.00;99.90;;;;;;5135800;27;20250;-68
2021/04/18 04:37:46;;;;;;;14.93;8.13;;;8.00;99.90;;;;;;5117405;27;20203;-66
2021/04/18 04:40:12;;;;;;;10.83;7.73;;;8.00;99.90;;;;;;5135642;27;20374;-66
2021/04/18 04:42:38;;;;;;;15.10;10.48;;;8.00;99.90;;;;;;5135846;27;20675;-66
2021/04/18 04:45:05;;;;;;;13.87;7.93;;;7.90;99.90;;;;;;5117229;27;20175;-66
2021/04/18 04:47:30;;;;;;;15.20;8.55;;;7.80;99.90;;;;;;5135885;27;20217;-67
2021/04/18 04:49:57;;;;;;;16.50;9.30;;;7.90;99.90;;;;;;5135543;27;20175;-68
2021/04/18 04:52:23;;;;;;;14.80;11.13;;;7.90;99.90;;;;;;5135745;27;20575;-66
2021/04/18 04:54:48;;;;;;;18.13;8.80;;;8.00;99.90;;;;;;5117063;27;20220;-67
2021/04/18 04:57:14;;;;;;;20.87;11.27;;;7.90;99.90;;;;;;5135601;27;20415;-67
2021/04/18 04:59:39;;;;;;;20.23;11.20;;;8.00;99.90;;;;;;5116802;27;20728;-66
2021/04/18 05:02:05;;;;;;;14.00;8.37;;;7.90;99.90;;;;;;5116955;27;20413;-67
2021/04/18 05:04:31;;;;;;;12.70;8.07;;;7.90;99.90;;;;;;5135214;27;20232;-66
2021/04/18 05:06:57;;;;;;;10.17;6.40;;;7.80;99.90;;;;;;5135029;27;20214;-69
2021/04/18 05:09:22;;;;;;;10.20;7.90;;;7.80;99.90;;;;;;5135130;27;20187;-68
2021/04/18 05:11:48;;;;;;;17.10;9.23;;;7.80;99.90;;;;;;5135241;27;20186;-69
2021/04/18 05:14:13;;;;;;;14.77;9.10;;;7.80;99.90;;;;;;5116663;27;20281;-68
2021/04/18 05:16:39;;;;;;;9.17;7.03;;;7.70;99.90;;;;;;5135149;27;20505;-68
2021/04/18 05:19:04;;;;;;;11.17;7.53;;;7.80;99.90;;;;;;5116587;27;20198;-69
2021/04/18 05:21:30;;;;;;;12.13;8.10;;;7.70;99.90;;;;;;5135198;27;20566;-68
2021/04/18 05:23:56;;;;;;;9.23;7.80;;;7.80;99.90;;;;;;5116457;27;20472;-66
2021/04/18 05:26:22;;;;;;;15.00;6.00;;;7.80;99.90;;;;;;5134714;27;20702;-68
2021/04/18 05:28:48;;;;;;;11.13;8.30;;;7.80;99.90;;;;;;5134844;27;20244;-68
2021/04/18 05:31:13;;;;;;;13.10;6.87;;;7.90;99.90;;;;;;5135008;27;20640;-65
2021/04/18 05:33:39;;;;;;;16.20;8.10;;;7.90;99.90;;;;;;5116310;27;20431;-66
2021/04/18 05:36:05;;;;;;;6.70;4.53;;;8.00;99.90;;;;;;5116362;27;20198;-66
2021/04/18 05:38:31;;;;;;;10.30;6.77;;;7.90;99.90;;;;;;5134689;27;20236;-66
2021/04/18 05:40:56;;;;;;;7.63;4.90;;;7.90;99.90;;;;;;5116354;28;20403;-66
2021/04/18 05:43:22;;;;;;;10.73;8.10;;;7.80;99.90;;;;;;5116409;28;20475;-66
2021/04/18 05:45:48;;;;;;;7.80;5.55;;;7.90;99.90;;;;;;5134641;27;20262;-66
2021/04/18 05:48:13;;;;;;;7.70;6.90;;;7.90;99.90;;;;;;5135003;28;20290;-68
2021/04/18 05:50:42;;;;;;;9.30;7.93;;;7.90;99.90;;;;;;5134470;28;20222;-68
2021/04/18 05:53:08;;;;;;;11.40;6.97;;;7.90;99.90;;;;;;5134403;28;20254;-69
2021/04/18 05:55:36;;;;;;;9.17;5.30;;;7.90;99.90;;;;;;5134599;28;20163;-67
2021/04/18 05:58:01;;;;;;;13.70;7.28;;;7.80;99.90;;;;;;5116328;28;20728;-65
2021/04/18 06:00:27;;;;;;;9.70;7.20;;;7.80;99.90;;;;;;5116201;28;20251;-70
2021/04/18 06:02:52;;;;;;;9.40;6.07;;;7.80;99.90;;;;;;5134783;28;20706;-68
2021/04/18 06:05:18;;;;;;;5.47;4.90;;;7.80;99.90;;;;;;5134572;28;20177;-67
2021/04/18 06:07:44;;;;;;;7.67;5.33;;;7.80;99.90;;;;;;5134886;28;20242;-66
2021/04/18 06:10:10;;;;;;;10.57;6.70;;;7.90;99.90;;;;;;5134402;28;20220;-68
2021/04/18 06:12:36;;;;;;;9.70;7.72;;;7.80;99.90;;;;;;5134550;28;20236;-67
2021/04/18 06:15:01;;;;;;;7.97;5.83;;;7.80;99.90;;;;;;5134288;28;20624;-69
2021/04/18 06:17:27;;;;;;;6.33;5.70;;;7.80;99.90;;;;;;5134703;28;20232;-69
2021/04/18 06:19:53;;;;;;;11.40;6.80;;;7.80;99.90;;;;;;5134380;28;20221;-68
2021/04/18 06:22:19;;;;;;;10.90;8.23;;;7.90;99.90;;;;;;5134598;28;20210;-68
2021/04/18 06:24:44;;;;;;;8.48;5.90;;;7.90;99.90;;;;;;5134321;28;20293;-66
2021/04/18 06:27:10;;;;;;;8.47;4.77;;;8.00;99.90;;;;;;5134067;28;20339;-66
2021/04/18 06:29:36;;;;;;;12.53;7.77;;;8.00;99.90;;;;;;5115778;28;20672;-67
2021/04/18 06:32:01;;;;;;;9.53;6.67;;;8.00;99.90;;;;;;5115912;28;20919;-70
2021/04/18 06:34:27;;;;;;;9.90;6.00;;;8.00;99.90;;;;;;5134184;28;20644;-69
2021/04/18 06:36:53;;;;;;;9.27;5.97;;;8.00;99.90;;;;;;5134426;28;20271;-66
2021/04/18 06:39:18;;;;;;;5.97;4.97;;;8.10;99.90;;;;;;5136314;27;20191;-68
2021/04/18 06:41:54;;;;;;;9.90;6.60;;;8.00;99.90;;;;;;5119658;27;20259;-67
2021/04/18 06:44:21;;;;;;;12.40;6.60;;;8.00;99.90;;;;;;5137984;27;20183;-69
2021/04/18 06:46:50;;;;;;;7.60;5.50;;;8.10;99.90;;;;;;5138080;27;20295;-68
2021/04/18 06:49:17;;;;;;;8.73;5.80;;;8.10;99.90;;;;;;5119375;27;20281;-66
2021/04/18 06:51:43;;;;;;;10.43;6.32;;;8.10;99.90;;;;;;5137937;27;20676;-66
2021/04/18 06:54:11;;;;;;;9.40;6.55;;;8.10;99.90;;;;;;5137706;27;20247;-68
2021/04/18 06:56:37;;;;;;;6.93;5.68;;;8.20;99.90;;;;;;5119357;27;20671;-66
2021/04/18 06:59:04;;;;;;;9.15;6.68;;;8.20;99.90;;;;;;5137596;27;20197;-68
2021/04/18 07:01:30;;;;;;;8.85;5.40;;;8.30;99.90;;;;;;5137768;27;20175;-66
2021/04/18 07:04:14;;;;;;;10.60;7.43;;;8.30;99.90;;;;;;5137558;27;20227;-68
2021/04/18 07:06:52;;;;;;;10.13;8.50;;;8.30;99.90;;;;;;5137601;27;20219;-68
2021/04/18 07:09:20;;;;;;;12.52;8.60;;;8.40;99.90;;;;;;5119003;27;20198;-68
2021/04/18 07:11:54;;;;;;;8.68;6.43;;;8.30;99.90;;;;;;5137626;27;20624;-66
2021/04/18 07:14:31;;;;;;;9.02;5.35;;;8.40;99.90;;;;;;5118893;27;20191;-65
2021/04/18 07:17:09;;;;;;;9.90;6.93;;;8.40;99.90;;;;;;5118891;27;20186;-68
2021/04/18 07:19:37;;;;;;;8.13;5.55;;;8.50;99.90;;;;;;5118831;27;20286;-68
2021/04/18 07:22:03;;;;;;;10.13;7.30;;;8.50;99.90;;;;;;5137483;27;20171;-68
2021/04/18 07:24:30;;;;;;;9.50;7.10;;;8.50;99.90;;;;;;5137197;27;20314;-68
2021/04/18 07:27:08;;;;;;;8.05;5.60;;;8.50;99.90;;;;;;5136985;27;20349;-66
2021/04/18 07:29:34;;;;;;;8.68;7.93;;;8.50;99.90;;;;;;5118564;27;20684;-68
2021/04/18 07:32:23;;;;;;;7.50;5.33;;;8.50;99.90;;;;;;5137414;27;20250;-66
2021/04/18 07:34:50;;;;;;;6.13;4.85;;;8.50;99.90;;;;;;5137096;27;20420;-68
2021/04/18 07:37:18;;;;;;;8.43;6.22;;;8.60;99.90;;;;;;5137216;27;20205;-67
2021/04/18 07:39:44;;;;;;;6.15;5.47;;;8.70;99.90;;;;;;5136730;27;20191;-66
2021/04/18 07:42:35;;;;;;;10.90;7.07;;;8.70;99.90;;;;;;5118435;27;20190;-68
2021/04/18 07:45:10;;;;;;;6.70;5.43;;;8.70;99.90;;;;;;5136839;27;20175;-66
2021/04/18 07:47:38;;;;;;;8.27;6.32;;;8.70;99.90;;;;;;5137036;27;20347;-66
2021/04/18 07:50:09;;;;;;;10.48;7.22;;;8.70;99.90;;;;;;5136655;27;20167;-66
2021/04/18 07:52:39;;;;;;;6.85;5.88;;;8.80;99.90;;;;;;5136845;27;20250;-66
2021/04/18 07:55:05;;;;;;;10.88;7.43;;;8.80;99.90;;;;;;5136690;27;20174;-66
2021/04/18 07:57:31;;;;;;;13.10;8.43;;;8.90;99.90;;;;;;5118199;27;20194;-68
2021/04/18 07:59:59;;;;;;;10.20;7.30;;;9.00;99.90;;;;;;5136515;27;20175;-69
2021/04/18 08:02:25;;;;;;;8.90;6.93;;;9.00;99.90;;;;;;5118144;27;20593;-69
2021/04/18 08:04:54;;;;;;;11.20;7.85;;;9.00;99.90;;;;;;5117993;27;20175;-67
2021/04/18 08:07:21;;;;;;;8.07;6.72;;;9.10;99.90;;;;;;5117975;27;20309;-66
2021/04/18 08:09:46;;;;;;;6.88;5.80;;;9.10;99.90;;;;;;5136278;27;20171;-68
2021/04/18 08:12:17;;;;;;;8.70;4.90;;;9.00;99.90;;;;;;5136592;27;20578;-67
2021/04/18 08:14:48;;;;;;;7.72;4.80;;;9.00;99.90;;;;;;5136123;27;20278;-66
2021/04/18 08:17:18;;;;;;;6.65;5.20;;;9.00;99.90;;;;;;5117987;27;20183;-68
2021/04/18 08:19:58;;;;;;;8.20;4.53;;;9.10;99.90;;;;;;5136021;27;20191;-66
2021/04/18 08:22:25;;;;;;;5.75;4.30;;;9.10;99.90;;;;;;5117573;27;20175;-66
2021/04/18 08:25:09;;;;;;;7.45;6.35;;;9.20;99.90;;;;;;5136050;27;20572;-66
2021/04/18 08:27:59;;;;;;;7.50;5.93;;;9.30;99.90;;;;;;5136215;27;20267;-67
2021/04/18 08:30:24;;;;;;;11.05;8.00;;;9.30;99.90;;;;;;5117642;27;20175;-68
2021/04/18 08:32:51;;;;;;;7.03;5.53;;;9.40;99.90;;;;;;5136126;27;20199;-66
2021/04/18 08:35:25;;;;;;;14.40;6.45;;;9.40;99.90;;;;;;5117310;27;20228;-68
2021/04/18 08:38:13;;;;;;;10.93;4.90;;;9.40;99.90;;;;;;5135959;27;20239;-70
2021/04/18 08:40:40;;;;;;;7.45;4.93;;;9.40;99.90;;;;;;5114844;28;20588;-66
2021/04/18 08:43:19;;;;;;;11.93;7.40;;;9.30;99.90;;;;;;5113765;28;20700;-66
2021/04/18 08:45:50;;;;;;;9.02;5.55;;;9.40;99.90;;;;;;5113728;28;20209;-68
2021/04/18 08:48:16;;;;;;;9.88;6.50;;;9.40;99.90;;;;;;5114338;28;20228;-66
2021/04/18 08:50:59;;;;;;;13.57;7.27;;;9.40;99.90;;;;;;5113692;28;20766;-69
2021/04/18 08:53:25;;;;;;;7.07;5.45;;;9.40;99.90;;;;;;5095649;28;20210;-69
2021/04/18 08:55:53;;;;;;;7.43;5.72;;;9.50;99.90;;;;;;5113996;28;20538;-69
2021/04/18 08:58:36;;;;;;;8.55;6.43;;;9.60;99.90;;;;;;5115240;28;20570;-68
2021/04/18 09:01:07;;;;;;;8.65;7.10;;;9.60;99.90;;;;;;5095961;28;20255;-66
2021/04/18 09:03:33;;;;;;;7.57;6.68;;;9.60;99.90;;;;;;5096377;28;20195;-69
2021/04/18 09:06:23;;;;;;;11.80;6.85;;;9.60;99.90;;;;;;5096476;28;20172;-69
2021/04/18 09:08:50;;;;;;;8.80;6.85;;;9.60;99.90;;;;;;5114513;28;20200;-66
2021/04/18 09:11:15;;;;;;;25.42;14.18;;;9.60;99.90;;;;;;5096396;28;20171;-69
2021/04/18 09:13:58;;;;;;;9.77;6.20;;;9.60;99.90;;;;;;5114468;28;20259;-68
2021/04/18 09:16:29;;;;;;;7.25;6.10;;;9.70;99.90;;;;;;5114642;28;20634;-67
2021/04/18 09:19:19;;;;;;;7.60;5.60;;;9.60;99.90;;;;;;5114402;28;20192;-69
2021/04/18 09:22:06;;;;;;;7.38;6.10;;;9.60;99.90;;;;;;5096298;28;20224;-66
2021/04/18 09:24:34;;;;;;;6.15;4.60;;;9.70;99.90;;;;;;5114445;28;20183;-68
2021/04/18 09:27:09;;;;;;;7.30;5.70;;;9.70;99.90;;;;;;5114505;28;20719;-69
2021/04/18 09:29:43;;;;;;;8.95;5.88;;;9.80;99.90;;;;;;5095904;28;20213;-68
2021/04/18 09:32:12;;;;;;;12.45;6.38;;;9.80;99.90;;;;;;5114685;28;20221;-69
2021/04/18 09:34:40;;;;;;;7.78;4.93;;;9.70;99.90;;;;;;5114156;28;20183;-68
2021/04/18 09:37:31;;;;;;;7.97;5.20;;;9.70;99.90;;;;;;5114502;28;20176;-66
2021/04/18 09:40:03;;;;;;;9.95;5.78;;;9.70;99.90;;;;;;5095465;28;20188;-67
2021/04/18 09:42:34;;;;;;;10.10;6.90;;;9.60;99.90;;;;;;5114007;28;20738;-66
2021/04/18 09:45:19;;;;;;;7.60;5.43;;;9.70;99.90;;;;;;5095947;28;20255;-67
2021/04/18 09:47:50;;;;;;;10.43;5.78;;;9.60;99.90;;;;;;5095885;28;20223;-67
2021/04/18 09:50:20;;;;;;;6.13;5.30;;;9.70;99.90;;;;;;5113998;28;20175;-69
2021/04/18 09:52:46;;;;;;;7.18;5.38;;;9.70;99.90;;;;;;5095933;28;20691;-68
2021/04/18 09:55:14;;;;;;;11.38;5.55;;;9.80;99.90;;;;;;5095791;28;20172;-67
2021/04/18 09:57:49;;;;;;;11.60;6.22;;;9.80;99.90;;;;;;5114242;28;20203;-69
2021/04/18 10:00:30;;;;;;;9.65;6.65;;;9.90;99.90;;;;;;5114177;28;20637;-68
2021/04/18 10:03:04;;;;;;;15.70;7.32;;;9.80;99.90;;;;;;5095930;28;20302;-67
2021/04/18 10:05:55;;;;;;;13.07;6.32;;;9.70;99.90;;;;;;5095800;28;20221;-68
2021/04/18 10:08:32;;;;;;;11.63;6.63;;;9.70;99.90;;;;;;5113727;28;20254;-67
2021/04/18 10:11:17;;;;;;;10.25;5.53;;;9.80;99.90;;;;;;5114005;28;20162;-68
2021/04/18 10:13:56;;;;;;;9.00;7.50;;;9.90;99.90;;;;;;5096765;28;20195;-69
2021/04/18 10:16:37;;;;;;;5.80;5.25;;;9.90;99.90;;;;;;5118068;28;20172;-66
2021/04/18 10:19:12;;;;;;;6.30;5.40;;;9.90;99.90;;;;;;5099598;28;20202;-66
2021/04/18 10:21:39;;;;;;;7.47;5.45;;;9.90;99.90;;;;;;5117939;28;20197;-68
2021/04/18 10:24:31;;;;;;;7.55;4.38;;;9.90;99.90;;;;;;5099491;28;20196;-67
2021/04/18 10:26:56;;;;;;;6.07;3.88;;;9.80;99.90;;;;;;5117962;28;20561;-68
2021/04/18 10:29:22;;;;;;;4.07;2.80;;;9.90;99.90;;;;;;5099472;28;20192;-67
2021/04/18 10:31:47;;;;;;;4.73;4.33;;;10.10;99.90;;;;;;5117815;28;20259;-66
2021/04/18 10:34:13;;;;;;;5.90;5.30;;;10.00;99.90;;;;;;5099355;28;20649;-68
2021/04/18 10:36:38;;;;;;;6.60;4.67;;;10.00;99.90;;;;;;5117587;28;20641;-69
2021/04/18 10:39:04;;;;;;;7.53;5.00;;;10.00;99.90;;;;;;5117598;28;20562;-69
2021/04/18 10:41:30;;;;;;;6.90;5.27;;;9.90;99.90;;;;;;5117507;28;20180;-69
2021/04/18 10:43:55;;;;;;;12.10;5.37;;;9.90;99.90;;;;;;5099084;28;20427;-68
2021/04/18 10:46:21;;;;;;;6.07;4.80;;;9.90;99.90;;;;;;5117451;28;20191;-70
2021/04/18 10:48:47;;;;;;;6.17;5.33;;;9.90;99.90;;;;;;5098947;28;20665;-67
2021/04/18 10:51:12;;;;;;;6.43;4.93;;;9.90;99.90;;;;;;5098964;28;20243;-67
2021/04/18 10:53:38;;;;;;;8.00;4.60;;;9.90;99.90;;;;;;5117218;28;20225;-67
2021/04/18 10:56:04;;;;;;;5.80;5.27;;;10.00;99.90;;;;;;5117258;28;20168;-69
2021/04/18 10:58:30;;;;;;;8.38;5.15;;;10.00;99.90;;;;;;5098924;28;20195;-68
2021/04/18 11:00:55;;;;;;;6.20;4.97;;;10.10;99.90;;;;;;5117147;28;20172;-68
2021/04/18 11:03:21;;;;;;;9.30;6.30;;;10.20;99.90;;;;;;5117493;28;20187;-67
2021/04/18 11:05:50;;;;;;;5.60;4.73;;;10.20;99.90;;;;;;5117003;28;20187;-69
2021/04/18 11:08:16;;;;;;;8.18;4.55;;;10.20;99.90;;;;;;5098874;28;20253;-67
2021/04/18 11:10:42;;;;;;;6.65;5.55;;;10.30;99.90;;;;;;5117007;28;20168;-70
2021/04/18 11:13:08;;;;;;;9.67;5.43;;;10.20;99.90;;;;;;5098755;28;20227;-68
2021/04/18 11:15:33;;;;;;;7.87;4.90;;;10.10;99.90;;;;;;5116928;28;20192;-68
2021/04/18 11:17:59;;;;;;;8.03;5.80;;;10.00;99.90;;;;;;5098785;28;20753;-67
2021/04/18 11:20:26;;;;;;;6.70;4.97;;;9.90;99.90;;;;;;5116812;28;20172;-69
2021/04/18 11:22:51;;;;;;;6.78;4.80;;;9.90;99.90;;;;;;5098268;28;20199;-66
2021/04/18 11:25:17;;;;;;;4.97;4.47;;;10.10;99.90;;;;;;5116120;28;20183;-69
2021/04/18 11:27:43;;;;;;;4.60;4.10;;;10.10;99.90;;;;;;5116872;28;20251;-69
2021/04/18 11:30:11;;;;;;;9.00;5.77;;;10.10;99.90;;;;;;5098366;28;20176;-70
2021/04/18 11:32:37;;;;;;;6.75;5.30;;;10.10;99.90;;;;;;5097890;28;20265;-67
2021/04/18 11:35:08;;;;;;;6.97;4.53;;;10.20;99.90;;;;;;5116481;28;20584;-68
2021/04/18 11:37:34;;;;;;;6.22;5.63;;;10.10;99.90;;;;;;5098277;28;20199;-67
2021/04/18 11:40:00;;;;;;;6.60;5.07;;;10.10;99.90;;;;;;5116395;28;20221;-69
2021/04/18 11:42:26;;;;;;;7.50;4.80;;;10.20;99.90;;;;;;5116703;28;20176;-67
2021/04/18 11:44:52;;;;;;;8.73;5.87;;;10.20;99.90;;;;;;5116264;28;20445;-67
2021/04/18 11:47:18;;;;;;;6.60;5.40;;;10.20;99.90;;;;;;5097852;28;20222;-67
2021/04/18 11:49:45;;;;;;;7.68;5.38;;;10.10;99.90;;;;;;5116422;28;20705;-67
2021/04/18 11:52:11;;;;;;;6.00;4.90;;;10.10;99.90;;;;;;5116137;28;20689;-68
2021/04/18 11:54:36;;;;;;;9.27;7.10;;;10.10;99.90;;;;;;5116043;28;20237;-69
2021/04/18 11:57:02;;;;;;;6.33;5.63;;;10.00;99.90;;;;;;5098024;28;20196;-67
2021/04/18 11:59:28;;;;;;;7.50;5.50;;;10.00;99.90;;;;;;5116310;28;20192;-67
2021/04/18 12:01:53;;;;;;;6.80;4.90;;;9.90;99.90;;;;;;5097670;28;20188;-67
2021/04/18 12:04:19;;;;;;;7.10;5.03;;;10.00;99.90;;;;;;5115947;28;20300;-67
2021/04/18 12:06:44;;;;;;;6.90;4.30;;;10.10;99.90;;;;;;5116067;28;20252;-67
2021/04/18 12:09:10;;;;;;;6.20;5.10;;;10.20;99.90;;;;;;5115784;28;20195;-67
2021/04/18 12:11:36;;;;;;;6.90;4.17;;;10.10;99.90;;;;;;5115842;28;20209;-68
2021/04/18 12:14:02;;;;;;;5.67;4.10;;;10.20;99.90;;;;;;5097355;28;20192;-67
2021/04/18 12:16:27;;;;;;;5.40;4.80;;;10.20;99.90;;;;;;5115779;28;20184;-69
2021/04/18 12:18:53;;;;;;;6.80;5.03;;;10.30;99.90;;;;;;5115563;28;20184;-68
2021/04/18 12:21:19;;;;;;;6.17;4.30;;;10.40;99.90;;;;;;5097324;28;20187;-69
2021/04/18 12:23:45;;;;;;;6.30;5.47;;;10.40;99.90;;;;;;5115521;28;20259;-68
2021/04/18 12:26:10;;;;;;;6.60;4.80;;;10.40;99.90;;;;;;5115426;28;20291;-68
2021/04/18 12:28:36;;;;;;;4.23;3.10;;;10.40;99.90;;;;;;5114991;28;20195;-69
2021/04/18 12:31:02;;;;;;;4.33;3.53;;;10.30;99.90;;;;;;5115290;28;20171;-67
2021/04/18 12:33:27;;;;;;;6.10;3.60;;;10.50;99.90;;;;;;5115253;28;20188;-67
2021/04/18 12:35:53;;;;;;;3.83;3.50;;;10.40;99.90;;;;;;5114371;28;20248;-69
2021/04/18 12:38:19;;;;;;;4.80;2.93;;;10.40;99.90;;;;;;5115429;28;20203;-66
2021/04/18 12:40:45;;;;;;;4.53;3.67;;;10.30;99.90;;;;;;5115078;28;20176;-67
2021/04/18 12:43:10;;;;;;;4.20;2.97;;;10.40;99.90;;;;;;5115371;28;20527;-67
2021/04/18 12:45:36;;;;;;;5.77;3.50;;;10.40;99.90;;;;;;5096848;28;20179;-68
2021/04/18 12:48:02;;;;;;;5.00;3.93;;;10.40;99.90;;;;;;5115405;28;20222;-66
2021/04/18 12:50:27;;;;;;;4.23;3.20;;;10.60;99.90;;;;;;5114830;28;20175;-67